createdAt,value
2022-10-05T00:01:33.259Z,14.20
2022-10-05T00:04:13.790Z,14.20
2022-10-05T00:06:41.863Z,15.80
2022-10-05T00:09:16.561Z,14.00
2022-10-05T00:11:45.079Z,18.20
2022-10-05T00:14:18.303Z,15.10
2022-10-05T00:16:45.663Z,15.10
2022-10-05T00:19:24.704Z,15.70
2022-10-05T00:21:51.829Z,16.60
2022-10-05T00:24:20.290Z,14.50
2022-10-05T00:26:55.396Z,13.40
2022-10-05T00:29:25.218Z,16.50
2022-10-05T00:31:53.324Z,15.40
2022-10-05T00:34:20.862Z,17.10
2022-10-05T00:36:48.744Z,17.60
2022-10-05T00:39:18.740Z,15.70
2022-10-05T00:42:08.536Z,14.50
2022-10-05T00:44:55.337Z,13.80
2022-10-05T00:47:44.784Z,14.80
2022-10-05T00:50:44.314Z,14.60
2022-10-05T00:53:33.278Z,14.60
2022-10-05T00:56:22.427Z,11.70
2022-10-05T00:59:10.352Z,13.50
2022-10-05T01:01:45.294Z,11.80
2022-10-05T01:04:20.562Z,13.60
2022-10-05T01:06:53.237Z,13.90
2022-10-05T01:09:39.039Z,15.60
2022-10-05T01:12:14.131Z,14.40
2022-10-05T01:14:53.098Z,13.50
2022-10-05T01:17:28.745Z,13.60
2022-10-05T01:20:13.297Z,13.50
2022-10-05T01:23:01.593Z,11.00
2022-10-05T01:26:03.180Z,12.80
2022-10-05T01:29:03.389Z,12.40
2022-10-05T01:32:08.657Z,13.40
2022-10-05T01:34:39.877Z,12.90
2022-10-05T01:37:34.978Z,16.60
2022-10-05T01:40:24.093Z,11.80
2022-10-05T01:43:19.196Z,13.10
2022-10-05T01:46:14.631Z,12.60
2022-10-05T01:49:19.312Z,11.30
2022-10-05T01:52:17.563Z,11.20
2022-10-05T01:54:48.406Z,11.90
2022-10-05T01:57:43.317Z,12.00
2022-10-05T02:00:15.436Z,14.60
2022-10-05T02:02:57.558Z,12.30
2022-10-05T02:05:30.459Z,12.90
2022-10-05T02:08:04.119Z,11.70
2022-10-05T02:10:53.734Z,12.10
2022-10-05T02:13:41.638Z,13.20
2022-10-05T02:16:16.005Z,11.60
2022-10-05T02:18:52.987Z,12.10
2022-10-05T02:21:20.544Z,12.90
2022-10-05T02:23:49.928Z,14.60
2022-10-05T02:26:17.318Z,12.60
2022-10-05T02:28:52.701Z,19.40
2022-10-05T02:31:25.004Z,12.10
2022-10-05T02:33:52.665Z,13.20
2022-10-05T02:36:28.206Z,12.90
2022-10-05T02:39:43.383Z,14.20
2022-10-05T02:42:11.688Z,12.30
2022-10-05T02:44:49.678Z,12.80
2022-10-05T02:47:47.855Z,12.10
2022-10-05T02:50:18.158Z,10.80
2022-10-05T02:53:03.537Z,13.70
2022-10-05T02:55:33.553Z,9.90
2022-10-05T02:58:25.597Z,10.40
2022-10-05T03:01:03.495Z,9.90
2022-10-05T03:03:35.558Z,11.00
2022-10-05T03:06:26.423Z,8.90
2022-10-05T03:09:03.455Z,8.00
2022-10-05T03:11:49.136Z,10.50
2022-10-05T03:14:31.958Z,10.60
2022-10-05T03:17:23.055Z,10.00
2022-10-05T03:20:12.734Z,8.40
2022-10-05T03:22:53.917Z,9.70
2022-10-05T03:25:31.117Z,9.20
2022-10-05T03:28:14.567Z,8.20
2022-10-05T03:31:08.300Z,11.20
2022-10-05T03:34:13.557Z,9.90
2022-10-05T03:37:00.377Z,9.70
2022-10-05T03:39:40.410Z,8.80
2022-10-05T03:42:35.181Z,10.30
2022-10-05T03:45:33.164Z,12.50
2022-10-05T03:48:12.196Z,8.50
2022-10-05T03:50:58.087Z,10.30
2022-10-05T03:53:31.650Z,12.90
2022-10-05T03:56:10.709Z,8.50
2022-10-05T03:59:01.310Z,9.30
2022-10-05T04:01:51.383Z,9.20
2022-10-05T04:04:34.518Z,9.80
2022-10-05T04:07:02.297Z,10.10
2022-10-05T04:09:41.383Z,11.10
2022-10-05T04:12:20.326Z,10.60
2022-10-05T04:14:50.421Z,9.10
2022-10-05T04:17:32.200Z,9.10
2022-10-05T04:20:04.867Z,12.70
2022-10-05T04:22:43.501Z,10.30
2022-10-05T04:25:16.178Z,8.10
2022-10-05T04:28:13.848Z,8.70
2022-10-05T04:30:44.693Z,9.90
2022-10-05T04:33:18.741Z,10.30
2022-10-05T04:35:58.495Z,10.80
2022-10-05T04:38:47.874Z,10.70
2022-10-05T04:41:31.832Z,8.70
2022-10-05T04:44:25.366Z,9.60
2022-10-05T04:47:08.701Z,9.70
2022-10-05T04:50:03.812Z,10.00
2022-10-05T04:52:46.856Z,9.10
2022-10-05T04:55:29.919Z,10.30
2022-10-05T04:58:03.154Z,9.30
2022-10-05T05:00:49.611Z,9.80
2022-10-05T05:03:40.464Z,8.80
2022-10-05T05:06:20.085Z,9.60
2022-10-05T05:09:13.654Z,7.80
2022-10-05T05:12:04.147Z,9.30
2022-10-05T05:15:04.696Z,9.00
2022-10-05T05:18:10.467Z,9.30
2022-10-05T05:21:03.098Z,13.50
2022-10-05T05:24:04.418Z,10.30
2022-10-05T05:27:09.493Z,8.70
2022-10-05T05:29:52.913Z,8.30
2022-10-05T05:32:43.317Z,8.20
2022-10-05T05:35:28.058Z,8.60
2022-10-05T05:38:20.613Z,9.90
2022-10-05T05:41:08.672Z,8.80
2022-10-05T05:43:56.898Z,11.10
2022-10-05T05:46:51.597Z,8.80
2022-10-05T05:49:24.558Z,13.10
2022-10-05T05:51:56.611Z,11.10
2022-10-05T05:54:39.578Z,11.50
2022-10-05T05:57:19.216Z,9.30
2022-10-05T05:59:52.691Z,10.20
2022-10-05T06:02:24.336Z,8.80
2022-10-05T06:04:57.636Z,10.50
2022-10-05T06:07:30.584Z,10.70
2022-10-05T06:10:22.923Z,13.00
2022-10-05T06:13:05.587Z,10.20
2022-10-05T06:15:40.651Z,10.90
2022-10-05T06:18:13.494Z,15.10
2022-10-05T06:20:47.298Z,13.30
2022-10-05T06:23:28.762Z,9.70
2022-10-05T06:26:09.741Z,10.40
2022-10-05T06:28:38.651Z,10.50
2022-10-05T06:31:12.295Z,11.70
2022-10-05T06:33:49.094Z,10.80
2022-10-05T06:36:33.407Z,11.00
2022-10-05T06:39:27.725Z,11.30
2022-10-05T06:42:01.424Z,11.20
2022-10-05T06:45:07.232Z,12.90
2022-10-05T06:48:04.921Z,9.10
2022-10-05T06:51:15.740Z,9.70
2022-10-05T06:54:16.955Z,9.60
2022-10-05T06:56:50.173Z,10.10
2022-10-05T06:59:43.357Z,9.00
2022-10-05T07:02:29.947Z,8.80
2022-10-05T07:05:28.976Z,10.00
2022-10-05T07:08:01.652Z,10.90
2022-10-05T07:10:34.422Z,11.20
2022-10-05T07:13:20.625Z,11.50
2022-10-05T07:15:50.637Z,8.20
2022-10-05T07:18:23.781Z,10.10
2022-10-05T07:21:00.700Z,10.90
2022-10-05T07:23:42.609Z,9.50
2022-10-05T07:26:16.139Z,8.10
2022-10-05T07:29:08.757Z,9.90
2022-10-05T07:31:51.774Z,11.10
2022-10-05T07:34:47.967Z,8.50
2022-10-05T07:37:44.457Z,9.00
2022-10-05T07:40:18.749Z,9.00
2022-10-05T07:43:22.159Z,11.00
2022-10-05T07:46:10.137Z,9.40
2022-10-05T07:48:57.449Z,9.90
2022-10-05T07:51:37.877Z,10.20
2022-10-05T07:54:08.618Z,11.20
2022-10-05T07:56:43.447Z,10.10
2022-10-05T07:59:44.283Z,10.90
2022-10-05T08:02:43.420Z,8.00
2022-10-05T08:05:16.775Z,10.20
2022-10-05T08:07:45.966Z,9.00
2022-10-05T08:10:23.599Z,9.80
2022-10-05T08:13:09.460Z,8.00
2022-10-05T08:15:46.333Z,9.50
2022-10-05T08:18:19.907Z,7.60
2022-10-05T08:20:55.781Z,7.80
2022-10-05T08:23:34.402Z,9.00
2022-10-05T08:26:24.790Z,7.80
2022-10-05T08:29:11.464Z,7.20
2022-10-05T08:31:43.900Z,6.80
2022-10-05T08:34:48.808Z,6.10
2022-10-05T08:37:25.306Z,12.20
2022-10-05T08:40:18.556Z,10.40
2022-10-05T08:42:57.896Z,7.20
2022-10-05T08:45:51.037Z,7.50
2022-10-05T08:48:49.521Z,8.40
2022-10-05T08:51:35.806Z,6.50
2022-10-05T08:54:21.628Z,7.40
2022-10-05T08:57:11.996Z,9.10
2022-10-05T08:59:48.459Z,7.90
2022-10-05T09:02:32.352Z,6.80
2022-10-05T09:05:33.277Z,8.10
2022-10-05T09:08:12.372Z,7.90
2022-10-05T09:11:07.697Z,7.70
2022-10-05T09:13:59.010Z,6.80
2022-10-05T09:16:51.671Z,5.70
2022-10-05T09:19:50.033Z,7.20
2022-10-05T09:22:17.521Z,7.20
2022-10-05T09:24:58.624Z,7.10
2022-10-05T09:27:38.016Z,8.90
2022-10-05T09:30:06.001Z,6.50
2022-10-05T09:32:45.208Z,5.20
2022-10-05T09:35:21.387Z,6.30
2022-10-05T09:38:10.636Z,7.20
2022-10-05T09:40:37.895Z,6.90
2022-10-05T09:43:26.965Z,6.30
2022-10-05T09:46:14.384Z,7.20
2022-10-05T09:49:16.738Z,5.10
2022-10-05T09:52:09.896Z,6.80
2022-10-05T09:54:49.457Z,6.20
2022-10-05T09:57:35.334Z,5.60
2022-10-05T10:00:26.738Z,8.00
2022-10-05T10:03:08.982Z,4.40
2022-10-05T10:05:54.939Z,4.00
2022-10-05T10:08:52.422Z,6.80
2022-10-05T10:11:56.627Z,6.00
2022-10-05T10:14:45.496Z,6.90
2022-10-05T10:17:33.275Z,6.30
2022-10-05T10:20:15.424Z,6.10
2022-10-05T10:23:23.530Z,7.30
2022-10-05T10:26:00.096Z,5.60
2022-10-05T10:28:43.815Z,5.70
2022-10-05T10:31:39.041Z,5.80
2022-10-05T10:34:34.362Z,6.30
2022-10-05T10:37:20.144Z,5.90
2022-10-05T10:40:09.097Z,6.80
2022-10-05T10:42:59.596Z,5.60
2022-10-05T10:45:39.023Z,4.30
2022-10-05T10:48:32.090Z,4.70
2022-10-05T10:51:19.636Z,4.80
2022-10-05T10:54:24.349Z,7.70
2022-10-05T10:57:15.972Z,5.00
2022-10-05T10:59:51.116Z,6.10
2022-10-05T11:02:30.377Z,5.80
2022-10-05T11:05:03.659Z,5.50
2022-10-05T11:07:33.754Z,6.40
2022-10-05T11:10:35.004Z,5.50
2022-10-05T11:13:17.634Z,5.20
2022-10-05T11:15:44.896Z,6.20
2022-10-05T11:18:47.336Z,4.80
2022-10-05T11:21:26.796Z,5.10
2022-10-05T11:24:19.929Z,6.40
2022-10-05T11:27:25.084Z,6.80
2022-10-05T11:30:11.197Z,6.10
2022-10-05T11:33:03.735Z,8.00
2022-10-05T11:36:00.015Z,6.60
2022-10-05T11:38:40.657Z,5.50
2022-10-05T11:41:12.614Z,6.20
2022-10-05T11:43:57.859Z,6.00
2022-10-05T11:46:30.914Z,8.20
2022-10-05T11:49:00.976Z,5.40
2022-10-05T11:51:34.544Z,6.40
2022-10-05T11:54:23.615Z,6.20
2022-10-05T11:57:01.258Z,6.80
2022-10-05T11:59:40.549Z,6.80
2022-10-05T12:02:40.048Z,6.00
2022-10-05T12:05:59.269Z,6.00
2022-10-05T12:08:48.797Z,4.80
2022-10-05T12:11:43.313Z,9.10
2022-10-05T12:14:24.510Z,7.80
2022-10-05T12:17:15.269Z,5.60
2022-10-05T12:19:46.071Z,4.90
2022-10-05T12:22:59.672Z,7.70
2022-10-05T12:25:36.115Z,6.30
2022-10-05T12:28:11.470Z,4.80
2022-10-05T12:30:52.152Z,6.00
2022-10-05T12:33:25.179Z,7.50
2022-10-05T12:36:12.738Z,7.10
2022-10-05T12:38:49.720Z,5.90
2022-10-05T12:41:28.062Z,5.50
2022-10-05T12:44:16.276Z,4.80
2022-10-05T12:47:02.558Z,6.60
2022-10-05T12:49:44.648Z,6.50
2022-10-05T12:52:38.584Z,5.60
2022-10-05T12:55:22.389Z,6.10
2022-10-05T12:58:35.671Z,5.60
2022-10-05T13:01:07.961Z,5.50
2022-10-05T13:03:38.633Z,6.90
2022-10-05T13:06:22.476Z,5.10
2022-10-05T13:09:08.994Z,5.80
2022-10-05T13:11:39.182Z,4.60
2022-10-05T13:14:36.458Z,5.80
2022-10-05T13:17:08.816Z,4.10
2022-10-05T13:19:39.853Z,6.50
2022-10-05T13:22:21.455Z,4.80
2022-10-05T13:24:57.190Z,6.80
2022-10-05T13:27:30.459Z,6.50
2022-10-05T13:29:59.396Z,5.90
2022-10-05T13:32:39.538Z,4.80
2022-10-05T13:36:00.302Z,5.70
2022-10-05T13:38:54.637Z,4.90
2022-10-05T13:41:44.114Z,5.90
2022-10-05T13:44:15.057Z,7.20
2022-10-05T13:47:04.214Z,7.30
2022-10-05T13:50:09.082Z,5.50
2022-10-05T13:53:11.914Z,4.80
2022-10-05T13:56:01.600Z,6.70
2022-10-05T13:58:28.846Z,5.60
2022-10-05T14:01:00.206Z,5.70
2022-10-05T14:03:30.348Z,5.10
2022-10-05T14:06:00.220Z,4.20
2022-10-05T14:08:34.214Z,6.10
2022-10-05T14:11:22.043Z,5.30
2022-10-05T14:13:50.567Z,6.10
2022-10-05T14:16:24.403Z,7.40
2022-10-05T14:18:54.655Z,6.30
2022-10-05T14:21:29.117Z,5.60
2022-10-05T14:23:59.654Z,5.80
2022-10-05T14:26:26.786Z,5.70
2022-10-05T14:29:17.338Z,5.50
2022-10-05T14:31:55.357Z,5.90
2022-10-05T14:34:37.072Z,6.40
2022-10-05T14:37:21.115Z,5.50
2022-10-05T14:39:50.312Z,6.80
2022-10-05T14:42:25.657Z,6.10
2022-10-05T14:45:01.942Z,5.90
2022-10-05T14:47:32.120Z,5.70
2022-10-05T14:50:26.631Z,7.80
2022-10-05T14:53:12.224Z,5.60
2022-10-05T14:55:51.058Z,6.70
2022-10-05T14:58:56.743Z,5.90
2022-10-05T15:01:31.204Z,6.50
2022-10-05T15:04:07.476Z,6.80
2022-10-05T15:07:15.696Z,6.50
2022-10-05T15:10:02.700Z,9.00
2022-10-05T15:12:36.230Z,5.90
2022-10-05T15:15:12.061Z,7.50
2022-10-05T15:17:50.979Z,5.70
2022-10-05T15:20:24.893Z,7.50
2022-10-05T15:23:08.426Z,6.70
2022-10-05T15:25:40.746Z,6.80
2022-10-05T15:28:14.156Z,9.70
2022-10-05T15:30:48.227Z,8.00
2022-10-05T15:33:28.076Z,7.70
2022-10-05T15:36:00.859Z,9.00
2022-10-05T15:38:32.810Z,7.70
2022-10-05T15:41:21.453Z,6.30
2022-10-05T15:44:10.217Z,7.30
2022-10-05T15:46:56.808Z,7.60
2022-10-05T15:49:34.711Z,7.50
2022-10-05T15:52:28.381Z,7.10
2022-10-05T15:55:20.215Z,7.30
2022-10-05T15:57:59.958Z,7.70
2022-10-05T16:00:28.428Z,8.40
2022-10-05T16:03:09.103Z,7.20
2022-10-05T16:06:03.494Z,7.00
2022-10-05T16:08:49.372Z,7.30
2022-10-05T16:11:37.004Z,10.10
2022-10-05T16:14:34.977Z,7.70
2022-10-05T16:17:14.513Z,8.40
2022-10-05T16:20:07.885Z,7.20
2022-10-05T16:22:59.909Z,8.70
2022-10-05T16:25:34.970Z,10.10
2022-10-05T16:28:17.003Z,10.00
2022-10-05T16:31:01.109Z,7.60
2022-10-05T16:33:37.247Z,9.00
2022-10-05T16:36:18.020Z,9.50
2022-10-05T16:38:48.446Z,9.40
2022-10-05T16:41:43.902Z,9.60
2022-10-05T16:44:39.654Z,11.50
2022-10-05T16:47:31.404Z,9.90
2022-10-05T16:50:22.419Z,8.00
2022-10-05T16:53:21.733Z,10.50
2022-10-05T16:55:53.515Z,10.00
2022-10-05T16:58:24.128Z,9.70
2022-10-05T17:01:23.337Z,8.70
2022-10-05T17:04:12.497Z,9.00
2022-10-05T17:06:48.634Z,9.50
2022-10-05T17:09:36.060Z,10.70
2022-10-05T17:12:40.687Z,9.10
2022-10-05T17:15:20.228Z,9.70
2022-10-05T17:18:02.020Z,8.80
2022-10-05T17:20:56.232Z,8.30
2022-10-05T17:23:44.456Z,11.70
2022-10-05T17:26:24.012Z,10.50
2022-10-05T17:29:10.240Z,13.20
2022-10-05T17:32:00.379Z,12.40
2022-10-05T17:34:38.926Z,10.90
2022-10-05T17:37:39.829Z,11.60
2022-10-05T17:40:36.677Z,11.50
2022-10-05T17:43:16.485Z,11.30
2022-10-05T17:45:46.327Z,10.60
2022-10-05T17:48:42.166Z,10.10
2022-10-05T17:51:57.544Z,13.70
2022-10-05T17:55:09.343Z,9.70
2022-10-05T17:57:37.395Z,12.20
2022-10-05T18:00:07.076Z,11.40
2022-10-05T18:02:40.407Z,11.20
2022-10-05T18:05:12.884Z,9.70
2022-10-05T18:07:41.264Z,9.80
2022-10-05T18:10:17.937Z,10.90
2022-10-05T18:13:02.294Z,11.60
2022-10-05T18:15:30.194Z,10.10
2022-10-05T18:18:19.957Z,10.60
2022-10-05T18:21:17.713Z,11.10
2022-10-05T18:23:52.738Z,11.70
2022-10-05T18:26:35.673Z,9.60
2022-10-05T18:29:15.027Z,12.00
2022-10-05T18:32:01.535Z,10.60
2022-10-05T18:35:00.990Z,9.30
2022-10-05T18:37:36.139Z,8.60
2022-10-05T18:40:27.733Z,10.30
2022-10-05T18:43:21.845Z,12.20
2022-10-05T18:46:16.058Z,11.90
2022-10-05T18:49:20.949Z,11.60
2022-10-05T18:51:53.656Z,11.10
2022-10-05T18:54:59.095Z,13.60
2022-10-05T18:57:42.933Z,11.40
2022-10-05T19:00:20.700Z,11.00
2022-10-05T19:02:59.205Z,11.40
2022-10-05T19:05:52.911Z,11.80
2022-10-05T19:08:28.620Z,14.20
2022-10-05T19:11:23.678Z,10.10
2022-10-05T19:14:00.163Z,12.80
2022-10-05T19:16:37.523Z,12.60
2022-10-05T19:19:16.320Z,11.00
2022-10-05T19:22:11.973Z,10.10
2022-10-05T19:24:42.192Z,11.10
2022-10-05T19:27:36.344Z,11.00
2022-10-05T19:30:23.696Z,10.20
2022-10-05T19:32:58.885Z,13.20
2022-10-05T19:35:41.853Z,11.10
2022-10-05T19:38:42.856Z,11.20
2022-10-05T19:41:17.229Z,10.30
2022-10-05T19:43:58.826Z,9.40
2022-10-05T19:46:55.679Z,10.70
2022-10-05T19:49:44.510Z,10.30
2022-10-05T19:52:14.527Z,10.20
2022-10-05T19:54:42.870Z,10.80
2022-10-05T19:57:18.423Z,11.40
2022-10-05T19:59:48.145Z,11.90
2022-10-05T20:02:18.177Z,10.00
2022-10-05T20:04:50.023Z,10.20
2022-10-05T20:07:22.345Z,10.20
2022-10-05T20:10:15.077Z,10.20
2022-10-05T20:12:51.141Z,9.80
2022-10-05T20:15:52.134Z,11.40
2022-10-05T20:18:57.899Z,13.70
2022-10-05T20:22:02.237Z,11.00
2022-10-05T20:24:32.311Z,12.40
2022-10-05T20:27:07.139Z,11.50
2022-10-05T20:29:39.602Z,10.00
2022-10-05T20:32:15.603Z,12.00
2022-10-05T20:34:44.742Z,9.60
2022-10-05T20:37:15.121Z,12.40
2022-10-05T20:39:42.773Z,11.00
2022-10-05T20:42:11.160Z,11.80
2022-10-05T20:44:38.883Z,10.70
2022-10-05T20:47:09.210Z,10.00
2022-10-05T20:49:37.960Z,12.90
2022-10-05T20:52:06.742Z,12.20
2022-10-05T20:54:34.413Z,13.20
2022-10-05T20:57:02.959Z,16.00
2022-10-05T20:59:30.246Z,11.00
2022-10-05T21:01:59.406Z,10.80
2022-10-05T21:04:32.792Z,16.00
2022-10-05T21:07:07.360Z,10.50
2022-10-05T21:09:34.610Z,11.80
2022-10-05T21:12:01.762Z,10.90
2022-10-05T21:14:33.395Z,12.70
2022-10-05T21:17:01.278Z,12.50
2022-10-05T21:19:30.056Z,12.10
2022-10-05T21:22:01.027Z,11.80
2022-10-05T21:24:28.195Z,11.30
2022-10-05T21:26:58.456Z,11.20
2022-10-05T21:29:25.601Z,10.30
2022-10-05T21:31:52.949Z,13.40
2022-10-05T21:34:20.313Z,11.20
2022-10-05T21:36:47.597Z,9.90
2022-10-05T21:39:14.714Z,11.60
2022-10-05T21:41:41.870Z,10.00
2022-10-05T21:44:10.258Z,13.70
2022-10-05T21:46:38.638Z,10.40
2022-10-05T21:49:07.341Z,11.20
2022-10-05T21:51:35.696Z,11.40
2022-10-05T21:54:16.357Z,11.20
2022-10-05T21:56:45.860Z,10.40
2022-10-05T21:59:15.875Z,13.40
2022-10-05T22:01:44.049Z,12.80
2022-10-05T22:04:11.192Z,12.60
2022-10-05T22:06:38.296Z,10.20
2022-10-05T22:09:05.820Z,9.90
2022-10-05T22:11:33.699Z,13.20
2022-10-05T22:14:04.021Z,11.10
2022-10-05T22:16:34.674Z,11.70
2022-10-05T22:19:06.484Z,9.30
2022-10-05T22:21:38.296Z,10.50
2022-10-05T22:24:05.998Z,9.50
2022-10-05T22:26:33.379Z,8.00
2022-10-05T22:29:02.080Z,8.80
2022-10-05T22:31:29.536Z,7.70
2022-10-05T22:33:57.306Z,8.40
2022-10-05T22:36:24.504Z,8.60
2022-10-05T22:38:51.868Z,8.30
2022-10-05T22:41:19.953Z,7.30
2022-10-05T22:43:50.464Z,7.70
2022-10-05T22:46:18.036Z,6.50
2022-10-05T22:48:45.293Z,9.30
2022-10-05T22:51:12.649Z,6.70
2022-10-05T22:53:40.109Z,7.30
2022-10-05T22:56:12.896Z,7.70
2022-10-05T22:58:40.750Z,8.20
2022-10-05T23:01:10.427Z,8.10
2022-10-05T23:03:37.790Z,8.30
2022-10-05T23:06:10.609Z,7.10
2022-10-05T23:08:38.608Z,7.90
2022-10-05T23:11:05.763Z,9.20
2022-10-05T23:13:33.872Z,8.10
2022-10-05T23:16:16.227Z,8.00
2022-10-05T23:18:44.058Z,8.60
2022-10-05T23:21:12.040Z,7.30
2022-10-05T23:23:41.637Z,7.90
2022-10-05T23:26:10.838Z,7.50
2022-10-05T23:28:40.648Z,9.60
2022-10-05T23:31:09.276Z,8.50
2022-10-05T23:33:36.697Z,7.50
2022-10-05T23:36:07.735Z,8.30
2022-10-05T23:38:36.308Z,7.00
2022-10-05T23:41:04.791Z,8.40
2022-10-05T23:43:33.646Z,6.80
2022-10-05T23:46:00.996Z,8.50
2022-10-05T23:48:28.533Z,8.70
2022-10-05T23:50:56.350Z,8.50
2022-10-05T23:53:23.811Z,8.80
2022-10-05T23:55:54.676Z,8.20
2022-10-05T23:58:22.535Z,7.90
